createdAt,value
2023-04-12T00:01:31.391Z,13.61
2023-04-12T00:04:04.395Z,13.62
2023-04-12T00:06:33.984Z,13.57
2023-04-12T00:09:01.975Z,13.58
2023-04-12T00:11:30.042Z,13.57
2023-04-12T00:13:58.532Z,13.58
2023-04-12T00:16:26.457Z,13.55
2023-04-12T00:18:54.351Z,13.55
2023-04-12T00:21:24.279Z,13.55
2023-04-12T00:23:51.977Z,13.52
2023-04-12T00:26:20.990Z,13.50
2023-04-12T00:28:49.618Z,13.51
2023-04-12T00:31:17.414Z,13.48
2023-04-12T00:33:45.115Z,13.46
2023-04-12T00:36:13.457Z,13.46
2023-04-12T00:38:42.718Z,13.46
2023-04-12T00:41:10.394Z,13.48
2023-04-12T00:43:38.537Z,13.48
2023-04-12T00:46:06.739Z,13.45
2023-04-12T00:48:35.162Z,13.44
2023-04-12T00:51:05.070Z,13.43
2023-04-12T00:53:34.130Z,13.44
2023-04-12T00:56:04.244Z,13.44
2023-04-12T00:58:33.466Z,13.44
2023-04-12T01:01:01.706Z,13.41
2023-04-12T01:03:30.966Z,13.43
2023-04-12T01:06:11.069Z,13.41
2023-04-12T01:08:48.801Z,13.42
2023-04-12T01:11:22.252Z,13.42
2023-04-12T01:13:56.840Z,13.42
2023-04-12T01:16:33.329Z,13.40
2023-04-12T01:19:04.015Z,13.38
2023-04-12T01:21:42.568Z,13.39
2023-04-12T01:24:24.981Z,13.39
2023-04-12T01:27:01.047Z,13.40
2023-04-12T01:29:31.587Z,13.38
2023-04-12T01:32:02.710Z,13.37
2023-04-12T01:34:32.759Z,13.33
2023-04-12T01:37:03.928Z,13.33
2023-04-12T01:39:34.228Z,13.31
2023-04-12T01:42:01.917Z,13.30
2023-04-12T01:44:31.458Z,13.29
2023-04-12T01:46:59.203Z,13.26
2023-04-12T01:49:36.574Z,13.28
2023-04-12T01:52:10.680Z,13.25
2023-04-12T01:54:43.184Z,13.25
2023-04-12T01:57:12.043Z,13.23
2023-04-12T01:59:43.553Z,13.24
2023-04-12T02:02:12.147Z,13.23
2023-04-12T02:04:40.914Z,13.20
2023-04-12T02:07:09.983Z,13.20
2023-04-12T02:09:38.427Z,13.22
2023-04-12T02:12:06.687Z,13.22
2023-04-12T02:14:35.114Z,13.21
2023-04-12T02:17:05.489Z,13.20
2023-04-12T02:19:33.308Z,13.20
2023-04-12T02:22:01.630Z,13.17
2023-04-12T02:24:29.749Z,13.20
2023-04-12T02:26:59.290Z,13.22
2023-04-12T02:29:27.537Z,13.23
2023-04-12T02:31:55.485Z,13.20
2023-04-12T02:34:24.725Z,13.21
2023-04-12T02:36:52.968Z,13.23
2023-04-12T02:39:22.107Z,13.23
2023-04-12T02:41:49.990Z,13.22
2023-04-12T02:44:18.464Z,13.23
2023-04-12T02:46:46.117Z,13.26
2023-04-12T02:49:13.814Z,13.26
2023-04-12T02:51:43.828Z,13.27
2023-04-12T02:54:11.333Z,13.33
2023-04-12T02:56:39.088Z,13.30
2023-04-12T02:59:07.452Z,13.27
2023-04-12T03:01:35.270Z,13.27
2023-04-12T03:04:03.104Z,13.24
2023-04-12T03:06:32.598Z,13.25
2023-04-12T03:09:01.660Z,13.23
2023-04-12T03:11:29.354Z,13.23
2023-04-12T03:13:57.728Z,13.23
2023-04-12T03:16:29.861Z,13.24
2023-04-12T03:18:58.348Z,13.20
2023-04-12T03:21:26.035Z,13.22
2023-04-12T03:23:53.721Z,13.24
2023-04-12T03:26:23.449Z,13.22
2023-04-12T03:28:51.126Z,13.22
2023-04-12T03:31:20.978Z,13.23
2023-04-12T03:33:49.279Z,13.23
2023-04-12T03:36:17.100Z,13.25
2023-04-12T03:38:45.290Z,13.24
2023-04-12T03:41:13.565Z,13.25
2023-04-12T03:43:42.653Z,13.24
2023-04-12T03:46:10.720Z,13.22
2023-04-12T03:48:40.228Z,13.24
2023-04-12T03:51:08.832Z,13.24
2023-04-12T03:53:36.962Z,13.24
2023-04-12T03:56:05.280Z,13.21
2023-04-12T03:58:33.990Z,13.16
2023-04-12T04:01:03.826Z,13.21
2023-04-12T04:03:35.461Z,13.24
2023-04-12T04:06:03.444Z,13.24
2023-04-12T04:08:32.560Z,13.21
2023-04-12T04:11:01.390Z,13.19
2023-04-12T04:13:29.124Z,13.17
2023-04-12T04:16:01.855Z,13.17
2023-04-12T04:18:31.100Z,13.18
2023-04-12T04:20:58.963Z,13.18
2023-04-12T04:23:29.468Z,13.18
2023-04-12T04:25:57.444Z,13.18
2023-04-12T04:28:25.236Z,13.20
2023-04-12T04:30:56.329Z,13.22
2023-04-12T04:33:24.330Z,13.22
2023-04-12T04:35:54.412Z,13.23
2023-04-12T04:38:25.982Z,13.25
2023-04-12T04:40:54.231Z,13.22
2023-04-12T04:43:22.244Z,13.23
2023-04-12T04:45:54.964Z,13.26
2023-04-12T04:48:22.673Z,13.23
2023-04-12T04:50:51.601Z,13.24
2023-04-12T04:53:23.097Z,13.26
2023-04-12T04:55:50.782Z,13.25
2023-04-12T04:58:18.449Z,13.27
2023-04-12T05:00:46.678Z,13.27
2023-04-12T05:03:14.424Z,13.28
2023-04-12T05:05:42.143Z,13.28
2023-04-12T05:08:10.407Z,13.26
2023-04-12T05:10:39.489Z,13.31
2023-04-12T05:13:07.145Z,13.22
2023-04-12T05:15:35.520Z,13.20
2023-04-12T05:18:03.569Z,13.22
2023-04-12T05:20:31.843Z,13.18
2023-04-12T05:23:00.160Z,13.18
2023-04-12T05:25:27.922Z,13.19
2023-04-12T05:27:56.958Z,13.18
2023-04-12T05:30:25.560Z,13.19
2023-04-12T05:32:53.256Z,13.21
2023-04-12T05:35:20.966Z,13.21
2023-04-12T05:37:49.598Z,13.23
2023-04-12T05:40:17.272Z,13.20
2023-04-12T05:42:44.930Z,13.23
2023-04-12T05:45:14.678Z,13.25
2023-04-12T05:47:42.405Z,13.26
2023-04-12T05:50:11.177Z,13.28
2023-04-12T05:52:39.356Z,13.30
2023-04-12T05:55:07.671Z,13.33
2023-04-12T05:57:35.352Z,13.33
2023-04-12T06:00:07.353Z,13.35
2023-04-12T06:02:37.236Z,13.36
2023-04-12T06:05:06.326Z,13.35
2023-04-12T06:07:34.747Z,13.37
2023-04-12T06:10:02.466Z,13.37
2023-04-12T06:12:30.181Z,13.36
2023-04-12T06:14:58.360Z,13.36
2023-04-12T06:17:26.120Z,13.38
2023-04-12T06:19:55.214Z,13.41
2023-04-12T06:22:23.393Z,13.41
2023-04-12T06:24:52.266Z,13.40
2023-04-12T06:27:20.710Z,13.41
2023-04-12T06:29:48.814Z,13.41
2023-04-12T06:32:16.876Z,13.41
2023-04-12T06:34:44.643Z,13.43
2023-04-12T06:37:14.220Z,13.44
2023-04-12T06:39:41.889Z,13.44
2023-04-12T06:42:09.796Z,13.43
2023-04-12T06:44:38.012Z,13.44
2023-04-12T06:47:05.871Z,13.44
2023-04-12T06:49:33.759Z,13.40
2023-04-12T06:52:02.074Z,13.42
2023-04-12T06:54:31.190Z,13.41
2023-04-12T06:56:58.872Z,13.40
2023-04-12T06:59:27.134Z,13.39
2023-04-12T07:01:54.870Z,13.40
2023-04-12T07:04:22.684Z,13.38
2023-04-12T07:06:51.006Z,13.38
2023-04-12T07:09:19.507Z,13.36
2023-04-12T07:11:48.580Z,13.36
2023-04-12T07:17:04.928Z,13.36
2023-04-12T07:19:32.819Z,13.33
2023-04-12T07:22:00.766Z,13.33
2023-04-12T07:24:28.470Z,13.32
2023-04-12T07:26:58.048Z,13.31
2023-04-12T07:29:25.877Z,13.36
2023-04-12T07:31:53.528Z,13.36
2023-04-12T07:34:21.872Z,13.35
2023-04-12T07:36:49.637Z,13.34
2023-04-12T07:39:17.792Z,13.35
2023-04-12T07:41:47.018Z,13.36
2023-04-12T07:44:16.160Z,13.39
2023-04-12T07:46:43.836Z,13.43
2023-04-12T07:49:12.086Z,13.46
2023-04-12T07:51:39.890Z,13.52
2023-04-12T07:54:07.656Z,13.59
2023-04-12T07:56:36.978Z,13.63
2023-04-12T07:59:04.679Z,13.67
2023-04-12T08:01:33.759Z,13.71
2023-04-12T08:04:02.794Z,13.76
2023-04-12T08:06:33.723Z,13.79
2023-04-12T08:09:02.338Z,13.82
2023-04-12T08:11:30.235Z,13.82
2023-04-12T08:13:58.082Z,13.83
2023-04-12T08:16:27.076Z,13.85
2023-04-12T08:18:56.191Z,13.88
2023-04-12T08:21:23.921Z,13.95
2023-04-12T08:23:52.003Z,14.02
2023-04-12T08:26:19.869Z,14.10
2023-04-12T08:28:48.564Z,14.20
2023-04-12T08:31:17.529Z,14.29
2023-04-12T08:33:45.381Z,14.34
2023-04-12T08:36:14.470Z,14.41
2023-04-12T08:38:46.272Z,14.43
2023-04-12T08:41:15.212Z,14.43
2023-04-12T08:43:46.489Z,14.54
2023-04-12T08:46:16.588Z,14.58
2023-04-12T08:48:46.602Z,14.63
2023-04-12T08:51:17.207Z,14.66
2023-04-12T08:53:44.964Z,14.68
2023-04-12T08:56:14.301Z,14.73
2023-04-12T08:58:45.941Z,14.80
2023-04-12T09:01:16.013Z,14.85
2023-04-12T09:03:44.578Z,14.91
2023-04-12T09:06:13.019Z,14.96
2023-04-12T09:08:54.858Z,15.02
2023-04-12T09:11:24.378Z,15.00
2023-04-12T09:13:52.105Z,15.02
2023-04-12T09:16:35.600Z,15.01
2023-04-12T09:19:03.633Z,15.01
2023-04-12T09:21:32.450Z,14.94
2023-04-12T09:24:14.214Z,14.97
2023-04-12T09:26:42.858Z,15.00
2023-04-12T09:29:24.511Z,15.00
2023-04-12T09:32:02.157Z,14.97
2023-04-12T09:34:30.658Z,15.02
2023-04-12T09:36:58.838Z,15.01
2023-04-12T09:39:35.117Z,15.00
2023-04-12T09:42:14.921Z,15.02
2023-04-12T09:44:46.430Z,14.99
2023-04-12T09:47:14.394Z,14.99
2023-04-12T09:49:43.492Z,14.96
2023-04-12T09:52:12.854Z,14.94
2023-04-12T09:54:44.407Z,14.91
2023-04-12T09:57:13.719Z,14.95
2023-04-12T09:59:42.929Z,14.88
2023-04-12T10:02:15.855Z,14.85
2023-04-12T10:04:44.476Z,14.77
2023-04-12T10:07:14.529Z,14.79
2023-04-12T10:09:44.892Z,14.80
2023-04-12T10:12:12.603Z,14.81
2023-04-12T10:14:40.919Z,14.85
2023-04-12T10:17:11.112Z,14.94
2023-04-12T10:19:40.733Z,14.99
2023-04-12T10:22:08.260Z,15.07
2023-04-12T10:24:36.528Z,15.16
2023-04-12T10:27:07.078Z,15.18
2023-04-12T10:29:37.220Z,15.20
2023-04-12T10:32:21.590Z,15.26
2023-04-12T10:34:54.187Z,15.21
2023-04-12T10:37:22.307Z,15.18
2023-04-12T10:39:54.083Z,15.19
2023-04-12T10:42:25.331Z,15.09
2023-04-12T10:44:54.959Z,15.04
2023-04-12T10:47:58.912Z,15.01
2023-04-12T10:50:30.213Z,15.05
2023-04-12T10:53:22.747Z,15.06
2023-04-12T10:55:50.792Z,15.05
2023-04-12T10:59:01.026Z,15.13
2023-04-12T11:01:31.724Z,15.26
2023-04-12T11:04:17.423Z,15.37
2023-04-12T11:06:52.433Z,15.50
2023-04-12T11:09:26.347Z,15.63
2023-04-12T11:11:59.573Z,15.76
2023-04-12T11:14:30.785Z,15.86
2023-04-12T11:17:23.907Z,15.93
2023-04-12T11:19:59.675Z,15.93
2023-04-12T11:22:30.170Z,15.93
2023-04-12T11:24:59.636Z,15.91
2023-04-12T11:27:28.998Z,15.89
2023-04-12T11:29:58.935Z,15.91
2023-04-12T11:32:29.764Z,15.92
2023-04-12T11:34:58.715Z,15.94
2023-04-12T11:37:27.541Z,15.97
2023-04-12T11:39:58.922Z,15.99
2023-04-12T11:42:29.062Z,16.03
2023-04-12T11:45:01.041Z,16.04
2023-04-12T11:47:33.046Z,16.05
2023-04-12T11:50:00.766Z,16.03
2023-04-12T11:52:30.822Z,15.97
2023-04-12T11:55:01.456Z,15.94
2023-04-12T11:57:31.331Z,15.86
2023-04-12T12:00:00.345Z,15.72
2023-04-12T12:02:32.820Z,15.50
2023-04-12T12:05:05.147Z,15.41
2023-04-12T12:07:33.200Z,15.22
2023-04-12T12:10:02.043Z,15.10
2023-04-12T12:12:30.010Z,15.01
2023-04-12T12:15:00.445Z,14.95
2023-04-12T12:17:28.855Z,14.88
2023-04-12T12:19:59.456Z,14.85
2023-04-12T12:22:28.588Z,14.82
2023-04-12T12:24:58.140Z,14.78
2023-04-12T12:27:27.198Z,14.79
2023-04-12T12:29:56.050Z,14.73
2023-04-12T12:32:24.280Z,14.65
2023-04-12T12:34:54.641Z,14.57
2023-04-12T12:37:25.298Z,14.49
2023-04-12T12:40:14.013Z,14.38
2023-04-12T12:42:46.834Z,14.35
2023-04-12T12:45:15.643Z,14.28
2023-04-12T12:47:48.673Z,14.25
2023-04-12T12:50:18.043Z,14.27
2023-04-12T12:52:47.246Z,14.25
2023-04-12T12:55:17.125Z,14.28
2023-04-12T12:57:55.072Z,14.28
2023-04-12T13:00:30.313Z,14.28
2023-04-12T13:02:58.924Z,14.29
2023-04-12T13:05:27.053Z,14.20
2023-04-12T13:07:54.767Z,14.25
2023-04-12T13:10:26.731Z,14.26
2023-04-12T13:12:54.417Z,14.26
2023-04-12T13:15:24.170Z,14.27
2023-04-12T13:17:53.955Z,14.31
2023-04-12T13:20:22.208Z,14.25
2023-04-12T13:22:51.451Z,14.36
2023-04-12T13:25:20.873Z,14.41
2023-04-12T13:27:50.599Z,14.49
2023-04-12T13:30:18.574Z,14.57
2023-04-12T13:32:46.677Z,14.65
2023-04-12T13:35:14.797Z,14.70
2023-04-12T13:37:42.916Z,14.69
2023-04-12T13:40:11.828Z,14.70
2023-04-12T13:42:39.546Z,14.63
2023-04-12T13:45:11.532Z,14.63
2023-04-12T13:47:40.606Z,14.60
2023-04-12T13:50:09.382Z,14.57
2023-04-12T13:52:37.490Z,14.53
2023-04-12T13:55:08.097Z,14.46
2023-04-12T13:57:36.388Z,14.36
2023-04-12T14:00:04.856Z,14.29
2023-04-12T14:02:34.021Z,14.19
2023-04-12T14:05:02.080Z,14.05
2023-04-12T14:07:30.333Z,13.99
2023-04-12T14:09:58.474Z,13.93
2023-04-12T14:12:26.247Z,13.88
2023-04-12T14:14:54.187Z,13.80
2023-04-12T14:17:21.978Z,13.79
2023-04-12T14:19:51.504Z,13.80
2023-04-12T14:22:19.658Z,13.77
2023-04-12T14:24:47.310Z,13.78
2023-04-12T14:27:17.850Z,13.80
2023-04-12T14:29:46.210Z,13.84
2023-04-12T14:32:13.898Z,13.89
2023-04-12T14:34:43.220Z,13.95
2023-04-12T14:37:12.507Z,14.04
2023-04-12T14:39:40.202Z,14.10
2023-04-12T14:42:07.921Z,14.16
2023-04-12T14:44:36.023Z,14.23
2023-04-12T14:47:03.724Z,14.31
2023-04-12T14:49:33.053Z,14.40
2023-04-12T14:52:01.910Z,14.47
2023-04-12T14:54:31.044Z,14.56
2023-04-12T14:56:58.713Z,14.60
2023-04-12T14:59:27.624Z,14.65
2023-04-12T15:01:55.791Z,14.66
2023-04-12T15:04:23.898Z,14.68
2023-04-12T15:06:52.961Z,14.66
2023-04-12T15:09:21.109Z,14.72
2023-04-12T15:11:56.546Z,14.79
2023-04-12T15:14:24.355Z,14.81
2023-04-12T15:16:52.217Z,14.83
2023-04-12T15:19:23.427Z,14.84
2023-04-12T15:21:52.189Z,14.88
2023-04-12T15:24:20.824Z,14.90
2023-04-12T15:26:51.037Z,14.89
2023-04-12T15:29:21.262Z,14.91
2023-04-12T15:31:49.271Z,14.90
2023-04-12T15:34:17.707Z,14.89
2023-04-12T15:36:45.970Z,14.89
2023-04-12T15:39:14.927Z,14.87
2023-04-12T15:41:43.792Z,14.85
2023-04-12T15:44:13.277Z,14.85
2023-04-12T15:46:43.865Z,14.89
2023-04-12T15:49:12.100Z,14.88
2023-04-12T15:51:39.884Z,14.88
2023-04-12T15:54:07.714Z,14.90
2023-04-12T15:56:37.814Z,14.96
2023-04-12T15:59:05.887Z,15.00
2023-04-12T16:01:36.920Z,15.02
2023-04-12T16:04:07.105Z,15.07
2023-04-12T16:06:38.382Z,15.17
2023-04-12T16:09:06.771Z,15.17
2023-04-12T16:11:35.270Z,15.22
2023-04-12T16:14:03.211Z,15.27
2023-04-12T16:16:30.894Z,15.25
2023-04-12T16:19:00.236Z,15.26
2023-04-12T16:21:30.424Z,15.29
2023-04-12T16:23:58.542Z,15.26
2023-04-12T16:26:27.089Z,15.25
2023-04-12T16:28:55.346Z,15.24
2023-04-12T16:31:25.347Z,15.11
2023-04-12T16:33:53.334Z,15.14
2023-04-12T16:36:23.465Z,15.12
2023-04-12T16:38:54.851Z,15.06
2023-04-12T16:41:23.291Z,14.97
2023-04-12T16:43:53.564Z,14.97
2023-04-12T16:46:22.185Z,14.94
2023-04-12T16:48:50.256Z,14.93
2023-04-12T16:51:18.149Z,14.89
2023-04-12T16:53:45.793Z,14.81
2023-04-12T16:56:14.996Z,14.80
2023-04-12T16:58:42.705Z,14.75
2023-04-12T17:01:10.442Z,14.70
2023-04-12T17:03:38.510Z,14.64
2023-04-12T17:06:07.023Z,14.55
2023-04-12T17:08:34.776Z,14.54
2023-04-12T17:11:02.589Z,14.48
2023-04-12T17:13:31.679Z,14.43
2023-04-12T17:15:59.384Z,14.36
2023-04-12T17:18:27.311Z,14.31
2023-04-12T17:20:55.910Z,14.23
2023-04-12T17:23:24.017Z,14.20
2023-04-12T17:25:52.088Z,14.12
2023-04-12T17:28:19.776Z,14.03
2023-04-12T17:30:48.844Z,14.06
2023-04-12T17:33:18.351Z,14.04
2023-04-12T17:35:47.175Z,14.02
2023-04-12T17:38:14.910Z,13.97
2023-04-12T17:40:42.985Z,13.98
2023-04-12T17:43:10.860Z,13.96
2023-04-12T17:45:38.715Z,13.95
2023-04-12T17:48:11.067Z,13.95
2023-04-12T17:50:38.775Z,13.93
2023-04-12T17:53:06.460Z,13.92
2023-04-12T17:55:34.581Z,13.92
2023-04-12T17:58:02.300Z,13.91
2023-04-12T18:00:29.996Z,13.91
2023-04-12T18:02:58.265Z,13.90
2023-04-12T18:05:27.647Z,13.89
2023-04-12T18:07:56.943Z,13.86
2023-04-12T18:10:26.830Z,13.83
2023-04-12T18:12:54.543Z,13.78
2023-04-12T18:15:22.456Z,13.74
2023-04-12T18:17:50.755Z,13.70
2023-04-12T18:20:18.643Z,13.67
2023-04-12T18:22:47.721Z,13.62
2023-04-12T18:25:16.846Z,13.59
2023-04-12T18:27:48.431Z,13.58
2023-04-12T18:30:17.556Z,13.52
2023-04-12T18:32:45.309Z,13.49
2023-04-12T18:35:13.347Z,13.48
2023-04-12T18:37:42.852Z,13.46
2023-04-12T18:40:13.518Z,13.46
2023-04-12T18:42:41.182Z,13.42
2023-04-12T18:45:10.603Z,13.42
2023-04-12T18:47:39.034Z,13.39
2023-04-12T18:50:08.338Z,13.37
2023-04-12T18:52:37.843Z,13.35
2023-04-12T18:55:06.312Z,13.34
2023-04-12T18:57:35.407Z,13.33
2023-04-12T19:00:05.835Z,13.29
2023-04-12T19:02:35.004Z,13.27
2023-04-12T19:05:02.979Z,13.25
2023-04-12T19:07:31.305Z,13.22
2023-04-12T19:09:58.984Z,13.20
2023-04-12T19:12:27.275Z,13.17
2023-04-12T19:14:56.758Z,13.14
2023-04-12T19:17:27.692Z,13.11
2023-04-12T19:19:56.142Z,13.07
2023-04-12T19:22:26.355Z,13.03
2023-04-12T19:24:54.316Z,12.99
2023-04-12T19:27:23.228Z,12.98
2023-04-12T19:29:52.141Z,12.96
2023-04-12T19:32:22.011Z,12.96
2023-04-12T19:34:51.405Z,12.92
2023-04-12T19:37:19.096Z,12.88
2023-04-12T19:39:46.777Z,12.89
2023-04-12T19:42:16.128Z,12.87
2023-04-12T19:44:43.931Z,12.83
2023-04-12T19:47:11.608Z,12.85
2023-04-12T19:49:41.261Z,12.84
2023-04-12T19:52:08.770Z,12.84
2023-04-12T19:54:37.346Z,12.83
2023-04-12T19:57:05.889Z,12.80
2023-04-12T19:59:34.375Z,12.75
2023-04-12T20:02:02.147Z,12.74
2023-04-12T20:04:30.309Z,12.72
2023-04-12T20:07:00.291Z,12.71
2023-04-12T20:09:28.146Z,12.63
2023-04-12T20:11:56.854Z,12.57
2023-04-12T20:14:26.729Z,12.62
2023-04-12T20:16:56.748Z,12.52
2023-04-12T20:19:24.753Z,12.52
2023-04-12T20:21:52.681Z,12.49
2023-04-12T20:24:25.612Z,12.52
2023-04-12T20:26:53.516Z,12.51
2023-04-12T20:29:21.897Z,12.53
2023-04-12T20:31:49.707Z,12.54
2023-04-12T20:34:17.650Z,12.50
2023-04-12T20:36:45.385Z,12.54
2023-04-12T20:39:13.747Z,12.49
2023-04-12T20:41:49.857Z,12.50
2023-04-12T20:44:17.607Z,12.51
2023-04-12T20:46:45.839Z,12.47
2023-04-12T20:49:14.584Z,12.48
2023-04-12T20:51:42.412Z,12.47
2023-04-12T20:54:10.571Z,12.50
2023-04-12T20:56:38.304Z,12.40
2023-04-12T20:59:07.989Z,12.47
2023-04-12T21:01:35.653Z,12.53
2023-04-12T21:04:06.153Z,12.49
2023-04-12T21:06:34.620Z,12.44
2023-04-12T21:09:05.758Z,12.42
2023-04-12T21:11:33.597Z,12.42
2023-04-12T21:14:01.514Z,12.43
2023-04-12T21:16:31.086Z,12.44
2023-04-12T21:18:59.392Z,12.43
2023-04-12T21:21:28.682Z,12.48
2023-04-12T21:23:56.342Z,12.49
2023-04-12T21:26:24.312Z,12.47
2023-04-12T21:28:52.268Z,12.43
2023-04-12T21:31:20.018Z,12.37
2023-04-12T21:33:50.491Z,12.30
2023-04-12T21:36:18.843Z,12.27
2023-04-12T21:38:46.977Z,12.21
2023-04-12T21:41:15.353Z,12.10
2023-04-12T21:43:43.029Z,12.10
2023-04-12T21:46:12.593Z,12.03
2023-04-12T21:48:40.734Z,12.04
2023-04-12T21:51:10.086Z,12.00
2023-04-12T21:53:38.072Z,11.97
2023-04-12T21:56:06.514Z,11.95
2023-04-12T21:58:34.367Z,11.86
2023-04-12T22:01:02.920Z,11.79
2023-04-12T22:03:30.818Z,11.64
2023-04-12T22:06:04.756Z,11.66
2023-04-12T22:08:34.681Z,11.59
2023-04-12T22:11:02.538Z,11.59
2023-04-12T22:13:30.760Z,11.56
2023-04-12T22:15:58.838Z,11.45
2023-04-12T22:18:27.293Z,11.43
2023-04-12T22:20:55.301Z,11.45
2023-04-12T22:23:23.414Z,11.42
2023-04-12T22:25:58.212Z,11.41
2023-04-12T22:28:26.149Z,11.37
2023-04-12T22:30:53.865Z,11.37
2023-04-12T22:33:22.373Z,11.34
2023-04-12T22:35:50.782Z,11.28
2023-04-12T22:38:19.370Z,11.24
2023-04-12T22:40:47.351Z,11.22
2023-04-12T22:43:18.696Z,11.20
2023-04-12T22:45:47.103Z,11.11
2023-04-12T22:48:15.886Z,11.06
2023-04-12T22:50:45.364Z,11.04
2023-04-12T22:53:13.916Z,11.03
2023-04-12T22:55:42.170Z,11.05
2023-04-12T22:58:10.069Z,11.00
2023-04-12T23:00:39.813Z,10.96
2023-04-12T23:03:11.160Z,10.91
2023-04-12T23:05:42.246Z,10.97
2023-04-12T23:08:10.515Z,10.92
2023-04-12T23:10:38.469Z,10.87
2023-04-12T23:13:06.975Z,10.82
2023-04-12T23:15:35.345Z,10.81
2023-04-12T23:18:05.366Z,10.82
2023-04-12T23:20:35.476Z,10.87
2023-04-12T23:23:03.341Z,10.87
2023-04-12T23:25:39.790Z,10.91
2023-04-12T23:28:12.596Z,10.83
2023-04-12T23:30:42.853Z,10.71
2023-04-12T23:33:12.353Z,10.78
2023-04-12T23:35:41.539Z,10.80
2023-04-12T23:38:10.349Z,10.81
2023-04-12T23:40:38.104Z,10.85
2023-04-12T23:43:05.821Z,10.68
2023-04-12T23:45:33.677Z,10.76
2023-04-12T23:48:01.524Z,10.72
2023-04-12T23:50:30.769Z,10.74
2023-04-12T23:52:58.786Z,10.81
2023-04-12T23:55:26.728Z,10.80
2023-04-12T23:57:54.463Z,10.79
